sensor_id;sensor_type;location;lat;lon;timestamp;pressure;altitude;pressure_sealevel;temperature;humidity
68889;BME280;55930;47.412;8.790;2023-02-22T00:02:57;94473.34;;;3.03;100.00
68889;BME280;55930;47.412;8.790;2023-02-22T00:06:21;94468.72;;;2.95;100.00
68889;BME280;55930;47.412;8.790;2023-02-22T00:09:44;94465.19;;;2.85;100.00
68889;BME280;55930;47.412;8.790;2023-02-22T00:13:07;94463.88;;;2.93;100.00
68889;BME280;55930;47.412;8.790;2023-02-22T00:16:28;94463.78;;;2.81;100.00
68889;BME280;55930;47.412;8.790;2023-02-22T00:19:50;94456.50;;;2.88;100.00
68889;BME280;55930;47.412;8.790;2023-02-22T00:23:16;94456.50;;;2.88;100.00
68889;BME280;55930;47.412;8.790;2023-02-22T00:26:38;94452.00;;;2.89;100.00
68889;BME280;55930;47.412;8.790;2023-02-22T00:29:58;94452.09;;;2.85;100.00
68889;BME280;55930;47.412;8.790;2023-02-22T00:33:21;94455.75;;;2.88;100.00
68889;BME280;55930;47.412;8.790;2023-02-22T00:36:48;94448.22;;;2.90;100.00
68889;BME280;55930;47.412;8.790;2023-02-22T00:40:10;94454.03;;;2.81;100.00
68889;BME280;55930;47.412;8.790;2023-02-22T00:43:30;94455.63;;;2.79;100.00
68889;BME280;55930;47.412;8.790;2023-02-22T00:46:51;94454.72;;;2.69;100.00
68889;BME280;55930;47.412;8.790;2023-02-22T00:50:12;94466.06;;;2.46;100.00
68889;BME280;55930;47.412;8.790;2023-02-22T00:53:32;94461.59;;;2.63;100.00
68889;BME280;55930;47.412;8.790;2023-02-22T00:56:55;94451.13;;;2.63;100.00
68889;BME280;55930;47.412;8.790;2023-02-22T01:00:20;94451.19;;;2.43;100.00
68889;BME280;55930;47.412;8.790;2023-02-22T01:03:43;94452.91;;;2.82;100.00
68889;BME280;55930;47.412;8.790;2023-02-22T01:07:04;94442.19;;;2.77;100.00
68889;BME280;55930;47.412;8.790;2023-02-22T01:10:26;94457.00;;;2.51;100.00
68889;BME280;55930;47.412;8.790;2023-02-22T01:13:47;94450.03;;;2.44;100.00
68889;BME280;55930;47.412;8.790;2023-02-22T01:17:07;94452.25;;;2.46;100.00
68889;BME280;55930;47.412;8.790;2023-02-22T01:20:30;94440.72;;;2.43;100.00
68889;BME280;55930;47.412;8.790;2023-02-22T01:23:53;94434.84;;;2.55;100.00
68889;BME280;55930;47.412;8.790;2023-02-22T01:27:14;94430.91;;;2.47;100.00
68889;BME280;55930;47.412;8.790;2023-02-22T01:30:38;94429.09;;;2.60;100.00
68889;BME280;55930;47.412;8.790;2023-02-22T01:33:59;94427.13;;;2.32;100.00
68889;BME280;55930;47.412;8.790;2023-02-22T01:37:19;94424.09;;;2.50;100.00
68889;BME280;55930;47.412;8.790;2023-02-22T01:40:42;94417.72;;;2.51;100.00
68889;BME280;55930;47.412;8.790;2023-02-22T01:44:18;94427.22;;;2.28;100.00
68889;BME280;55930;47.412;8.790;2023-02-22T01:47:39;94421.47;;;2.34;100.00
68889;BME280;55930;47.412;8.790;2023-02-22T01:51:16;94422.78;;;2.25;100.00
68889;BME280;55930;47.412;8.790;2023-02-22T01:54:43;94419.19;;;2.19;100.00
68889;BME280;55930;47.412;8.790;2023-02-22T01:58:05;94407.97;;;2.19;100.00
68889;BME280;55930;47.412;8.790;2023-02-22T02:01:27;94410.44;;;2.26;100.00
68889;BME280;55930;47.412;8.790;2023-02-22T02:04:48;94402.19;;;2.27;100.00
68889;BME280;55930;47.412;8.790;2023-02-22T02:11:39;94402.09;;;2.15;100.00
68889;BME280;55930;47.412;8.790;2023-02-22T02:15:17;94409.69;;;2.25;100.00
68889;BME280;55930;47.412;8.790;2023-02-22T02:18:37;94408.22;;;2.24;100.00
68889;BME280;55930;47.412;8.790;2023-02-22T02:33:43;94394.09;;;2.22;100.00
68889;BME280;55930;47.412;8.790;2023-02-22T02:37:21;94397.25;;;1.97;100.00
68889;BME280;55930;47.412;8.790;2023-02-22T02:40:48;94392.94;;;2.07;100.00
68889;BME280;55930;47.412;8.790;2023-02-22T02:47:45;94388.00;;;2.09;100.00
68889;BME280;55930;47.412;8.790;2023-02-22T02:51:12;94381.47;;;2.17;100.00
68889;BME280;55930;47.412;8.790;2023-02-22T02:54:35;94376.34;;;2.13;100.00
68889;BME280;55930;47.412;8.790;2023-02-22T02:57:57;94371.50;;;2.12;100.00
68889;BME280;55930;47.412;8.790;2023-02-22T03:09:09;94365.88;;;1.77;100.00
68889;BME280;55930;47.412;8.790;2023-02-22T03:12:46;94370.16;;;1.87;100.00
68889;BME280;55930;47.412;8.790;2023-02-22T03:16:45;94361.25;;;2.01;100.00
68889;BME280;55930;47.412;8.790;2023-02-22T03:24:09;94365.88;;;1.77;100.00
68889;BME280;55930;47.412;8.790;2023-02-22T03:27:58;94364.94;;;1.87;100.00
68889;BME280;55930;47.412;8.790;2023-02-22T03:31:24;94370.41;;;1.93;100.00
68889;BME280;55930;47.412;8.790;2023-02-22T03:34:53;94365.84;;;1.97;100.00
68889;BME280;55930;47.412;8.790;2023-02-22T03:38:18;94362.38;;;1.84;100.00
68889;BME280;55930;47.412;8.790;2023-02-22T03:41:39;94361.00;;;1.79;100.00
68889;BME280;55930;47.412;8.790;2023-02-22T03:45:02;94360.09;;;1.86;100.00
68889;BME280;55930;47.412;8.790;2023-02-22T03:51:50;94362.66;;;1.89;100.00
68889;BME280;55930;47.412;8.790;2023-02-22T03:55:12;94353.81;;;1.67;100.00
68889;BME280;55930;47.412;8.790;2023-02-22T03:58:37;94353.38;;;1.69;100.00
68889;BME280;55930;47.412;8.790;2023-02-22T04:01:59;94362.53;;;1.77;100.00
68889;BME280;55930;47.412;8.790;2023-02-22T04:05:20;94358.78;;;1.78;100.00
68889;BME280;55930;47.412;8.790;2023-02-22T04:08:40;94363.31;;;1.58;100.00
68889;BME280;55930;47.412;8.790;2023-02-22T04:12:03;94361.00;;;1.79;100.00
68889;BME280;55930;47.412;8.790;2023-02-22T04:15:23;94352.59;;;1.88;100.00
68889;BME280;55930;47.412;8.790;2023-02-22T04:18:44;94357.28;;;1.61;100.00
68889;BME280;55930;47.412;8.790;2023-02-22T04:22:04;94351.50;;;1.69;100.00
68889;BME280;55930;47.412;8.790;2023-02-22T04:25:25;94356.13;;;1.62;100.00
68889;BME280;55930;47.412;8.790;2023-02-22T04:28:45;94353.28;;;1.56;100.00
68889;BME280;55930;47.412;8.790;2023-02-22T04:32:06;94347.56;;;1.61;100.00
68889;BME280;55930;47.412;8.790;2023-02-22T04:35:27;94347.84;;;1.67;100.00
68889;BME280;55930;47.412;8.790;2023-02-22T04:38:47;94355.81;;;1.60;100.00
68889;BME280;55930;47.412;8.790;2023-02-22T04:42:10;94354.25;;;1.62;100.00
68889;BME280;55930;47.412;8.790;2023-02-22T04:45:30;94358.84;;;1.58;100.00
68889;BME280;55930;47.412;8.790;2023-02-22T04:48:51;94356.69;;;1.53;100.00
68889;BME280;55930;47.412;8.790;2023-02-22T04:52:14;94351.25;;;1.64;100.00
68889;BME280;55930;47.412;8.790;2023-02-22T04:55:35;94357.22;;;1.64;100.00
68889;BME280;55930;47.412;8.790;2023-02-22T04:58:55;94362.97;;;1.75;100.00
68889;BME280;55930;47.412;8.790;2023-02-22T05:02:19;94358.13;;;1.74;100.00
68889;BME280;55930;47.412;8.790;2023-02-22T05:05:40;94353.34;;;1.52;100.00
68889;BME280;55930;47.412;8.790;2023-02-22T05:09:01;94352.19;;;1.53;100.00
68889;BME280;55930;47.412;8.790;2023-02-22T05:12:24;94352.34;;;1.46;100.00
68889;BME280;55930;47.412;8.790;2023-02-22T05:15:45;94354.84;;;1.34;100.00
68889;BME280;55930;47.412;8.790;2023-02-22T05:19:06;94348.28;;;1.26;100.00
68889;BME280;55930;47.412;8.790;2023-02-22T05:22:27;94355.34;;;1.45;100.00
68889;BME280;55930;47.412;8.790;2023-02-22T05:25:48;94354.50;;;1.51;100.00
68889;BME280;55930;47.412;8.790;2023-02-22T05:29:09;94349.91;;;1.75;100.00
68889;BME280;55930;47.412;8.790;2023-02-22T05:32:29;94352.91;;;1.74;100.00
68889;BME280;55930;47.412;8.790;2023-02-22T05:35:49;94346.13;;;1.92;100.00
68889;BME280;55930;47.412;8.790;2023-02-22T05:39:10;94344.50;;;1.82;100.00
68889;BME280;55930;47.412;8.790;2023-02-22T05:42:31;94341.75;;;1.89;100.00
68889;BME280;55930;47.412;8.790;2023-02-22T05:45:51;94347.03;;;2.02;100.00
68889;BME280;55930;47.412;8.790;2023-02-22T05:49:12;94340.28;;;2.21;100.00
68889;BME280;55930;47.412;8.790;2023-02-22T05:52:32;94351.22;;;2.32;100.00
68889;BME280;55930;47.412;8.790;2023-02-22T05:55:52;94339.88;;;2.22;100.00
68889;BME280;55930;47.412;8.790;2023-02-22T05:59:13;94340.03;;;2.15;100.00
68889;BME280;55930;47.412;8.790;2023-02-22T06:02:34;94339.94;;;2.03;100.00
68889;BME280;55930;47.412;8.790;2023-02-22T06:05:55;94335.59;;;1.96;100.00
68889;BME280;55930;47.412;8.790;2023-02-22T06:09:17;94341.34;;;1.91;100.00
68889;BME280;55930;47.412;8.790;2023-02-22T06:12:37;94339.28;;;1.99;100.00
68889;BME280;55930;47.412;8.790;2023-02-22T06:15:57;94349.09;;;2.11;100.00
68889;BME280;55930;47.412;8.790;2023-02-22T06:19:18;94346.47;;;2.11;100.00
68889;BME280;55930;47.412;8.790;2023-02-22T06:22:38;94344.59;;;2.27;100.00
68889;BME280;55930;47.412;8.790;2023-02-22T06:26:02;94349.09;;;2.43;100.00
68889;BME280;55930;47.412;8.790;2023-02-22T06:29:23;94349.72;;;2.63;100.00
68889;BME280;55930;47.412;8.790;2023-02-22T06:32:44;94351.66;;;2.76;100.00
68889;BME280;55930;47.412;8.790;2023-02-22T06:36:05;94354.06;;;2.99;100.00
68889;BME280;55930;47.412;8.790;2023-02-22T06:39:25;94347.34;;;2.98;100.00
68889;BME280;55930;47.412;8.790;2023-02-22T06:42:47;94348.06;;;2.86;100.00
68889;BME280;55930;47.412;8.790;2023-02-22T06:46:09;94352.16;;;2.87;100.00
68889;BME280;55930;47.412;8.790;2023-02-22T06:49:30;94357.63;;;3.05;100.00
68889;BME280;55930;47.412;8.790;2023-02-22T06:52:51;94352.00;;;3.06;100.00
68889;BME280;55930;47.412;8.790;2023-02-22T06:56:11;94360.88;;;3.25;99.57
68889;BME280;55930;47.412;8.790;2023-02-22T06:59:32;94360.81;;;3.41;99.01
68889;BME280;55930;47.412;8.790;2023-02-22T07:02:53;94357.16;;;3.77;97.82
68889;BME280;55930;47.412;8.790;2023-02-22T07:06:13;94355.28;;;3.77;99.96
68889;BME280;55930;47.412;8.790;2023-02-22T07:09:33;94363.06;;;4.06;99.95
68889;BME280;55930;47.412;8.790;2023-02-22T07:12:54;94362.97;;;4.22;99.40
68889;BME280;55930;47.412;8.790;2023-02-22T07:16:14;94362.16;;;4.47;95.40
68889;BME280;55930;47.412;8.790;2023-02-22T07:19:37;94367.91;;;4.68;94.95
68889;BME280;55930;47.412;8.790;2023-02-22T07:22:58;94363.13;;;4.88;93.16
68889;BME280;55930;47.412;8.790;2023-02-22T07:26:19;94371.22;;;5.15;92.38
68889;BME280;55930;47.412;8.790;2023-02-22T07:29:45;94371.66;;;5.35;93.63
68889;BME280;55930;47.412;8.790;2023-02-22T07:33:08;94371.72;;;5.66;92.64
68889;BME280;55930;47.412;8.790;2023-02-22T07:36:29;94366.31;;;6.01;91.23
68889;BME280;55930;47.412;8.790;2023-02-22T07:39:49;94361.34;;;6.43;88.74
68889;BME280;55930;47.412;8.790;2023-02-22T07:46:39;94356.69;;;7.38;85.97
68889;BME280;55930;47.412;8.790;2023-02-22T07:49:59;94360.81;;;7.99;83.81
68889;BME280;55930;47.412;8.790;2023-02-22T07:53:25;94353.56;;;8.51;78.60
68889;BME280;55930;47.412;8.790;2023-02-22T07:56:49;94354.28;;;8.99;76.57
68889;BME280;55930;47.412;8.790;2023-02-22T08:00:10;94362.47;;;9.25;74.33
68889;BME280;55930;47.412;8.790;2023-02-22T08:03:31;94356.53;;;10.73;70.17
68889;BME280;55930;47.412;8.790;2023-02-22T08:06:55;94350.53;;;10.93;67.74
68889;BME280;55930;47.412;8.790;2023-02-22T08:10:17;94345.09;;;11.54;57.97
68889;BME280;55930;47.412;8.790;2023-02-22T08:13:38;94348.75;;;11.57;59.43
68889;BME280;55930;47.412;8.790;2023-02-22T08:16:58;94350.16;;;12.46;56.82
68889;BME280;55930;47.412;8.790;2023-02-22T08:20:19;94340.69;;;11.97;56.19
68889;BME280;55930;47.412;8.790;2023-02-22T08:23:40;94340.00;;;12.08;57.79
68889;BME280;55930;47.412;8.790;2023-02-22T08:27:00;94331.53;;;12.04;59.42
68889;BME280;55930;47.412;8.790;2023-02-22T08:30:22;94342.34;;;13.45;52.09
68889;BME280;55930;47.412;8.790;2023-02-22T08:33:46;94347.47;;;13.98;48.31
68889;BME280;55930;47.412;8.790;2023-02-22T08:37:06;94335.63;;;12.90;48.63
68889;BME280;55930;47.412;8.790;2023-02-22T08:40:31;94342.34;;;14.67;46.20
68889;BME280;55930;47.412;8.790;2023-02-22T08:43:52;94348.44;;;13.90;45.29
68889;BME280;55930;47.412;8.790;2023-02-22T08:47:13;94347.63;;;13.22;48.13
68889;BME280;55930;47.412;8.790;2023-02-22T08:50:33;94347.53;;;15.53;42.38
68889;BME280;55930;47.412;8.790;2023-02-22T08:53:57;94364.34;;;14.90;42.16
68889;BME280;55930;47.412;8.790;2023-02-22T08:57:17;94354.41;;;19.29;34.53
68889;BME280;55930;47.412;8.790;2023-02-22T09:00:40;94349.75;;;20.88;31.01
68889;BME280;55930;47.412;8.790;2023-02-22T09:04:02;94356.59;;;18.78;32.26
68889;BME280;55930;47.412;8.790;2023-02-22T09:07:23;94349.84;;;16.63;36.78
68889;BME280;55930;47.412;8.790;2023-02-22T09:10:44;94348.81;;;16.71;36.42
68889;BME280;55930;47.412;8.790;2023-02-22T09:14:04;94346.16;;;16.90;37.37
68889;BME280;55930;47.412;8.790;2023-02-22T09:17:25;94349.97;;;19.18;32.95
68889;BME280;55930;47.412;8.790;2023-02-22T09:20:45;94348.72;;;21.93;28.98
68889;BME280;55930;47.412;8.790;2023-02-22T09:24:06;94349.66;;;23.50;26.81
68889;BME280;55930;47.412;8.790;2023-02-22T09:27:30;94353.63;;;23.49;26.69
68889;BME280;55930;47.412;8.790;2023-02-22T09:30:50;94357.13;;;20.17;30.14
68889;BME280;55930;47.412;8.790;2023-02-22T09:34:10;94343.00;;;22.42;26.92
68889;BME280;55930;47.412;8.790;2023-02-22T09:37:36;94341.56;;;22.57;26.70
68889;BME280;55930;47.412;8.790;2023-02-22T09:41:25;94342.78;;;24.81;24.62
68889;BME280;55930;47.412;8.790;2023-02-22T09:44:59;94340.75;;;23.09;27.11
68889;BME280;55930;47.412;8.790;2023-02-22T09:48:23;94341.78;;;25.72;24.99
68889;BME280;55930;47.412;8.790;2023-02-22T09:52:10;94336.06;;;26.31;24.09
68889;BME280;55930;47.412;8.790;2023-02-22T09:55:41;94334.13;;;22.72;28.72
68889;BME280;55930;47.412;8.790;2023-02-22T09:59:04;94342.38;;;19.43;33.39
68889;BME280;55930;47.412;8.790;2023-02-22T10:02:30;94342.72;;;19.73;33.58
68889;BME280;55930;47.412;8.790;2023-02-22T10:09:26;94337.22;;;22.38;30.37
68889;BME280;55930;47.412;8.790;2023-02-22T10:27:31;94330.31;;;27.40;25.25
68889;BME280;55930;47.412;8.790;2023-02-22T10:31:02;94331.56;;;27.78;23.82
68889;BME280;55930;47.412;8.790;2023-02-22T10:34:25;94326.75;;;26.34;25.82
68889;BME280;55930;47.412;8.790;2023-02-22T10:37:50;94330.31;;;25.90;25.81
68889;BME280;55930;47.412;8.790;2023-02-22T10:41:47;94326.06;;;23.27;28.97
68889;BME280;55930;47.412;8.790;2023-02-22T10:44:59;94326.72;;;25.44;26.46
68889;BME280;55930;47.412;8.790;2023-02-22T10:48:20;94329.72;;;25.21;26.64
68889;BME280;55930;47.412;8.790;2023-02-22T10:51:41;94323.16;;;27.16;24.65
68889;BME280;55930;47.412;8.790;2023-02-22T10:55:02;94325.97;;;26.60;24.81
68889;BME280;55930;47.412;8.790;2023-02-22T10:58:26;94328.22;;;28.39;23.34
68889;BME280;55930;47.412;8.790;2023-02-22T11:01:49;94327.63;;;27.02;24.85
68889;BME280;55930;47.412;8.790;2023-02-22T11:05:29;94324.00;;;26.24;24.70
68889;BME280;55930;47.412;8.790;2023-02-22T11:09:03;94326.59;;;22.56;32.13
68889;BME280;55930;47.412;8.790;2023-02-22T11:12:31;94320.81;;;22.74;32.52
68889;BME280;55930;47.412;8.790;2023-02-22T11:15:54;94320.19;;;21.47;33.93
68889;BME280;55930;47.412;8.790;2023-02-22T11:19:18;94313.44;;;19.70;36.80
68889;BME280;55930;47.412;8.790;2023-02-22T11:22:40;94313.97;;;19.89;35.67
68889;BME280;55930;47.412;8.790;2023-02-22T11:26:10;94316.78;;;24.95;29.01
68889;BME280;55930;47.412;8.790;2023-02-22T11:29:35;94308.88;;;26.31;27.31
68889;BME280;55930;47.412;8.790;2023-02-22T11:33:17;94295.25;;;25.41;26.79
68889;BME280;55930;47.412;8.790;2023-02-22T11:36:44;94292.88;;;25.28;28.16
68889;BME280;55930;47.412;8.790;2023-02-22T11:40:18;94281.16;;;26.15;26.22
68889;BME280;55930;47.412;8.790;2023-02-22T11:43:45;94279.88;;;26.91;25.24
68889;BME280;55930;47.412;8.790;2023-02-22T11:47:10;94277.59;;;29.12;22.68
68889;BME280;55930;47.412;8.790;2023-02-22T11:54:28;94254.56;;;29.26;24.32
68889;BME280;55930;47.412;8.790;2023-02-22T12:01:30;94243.19;;;27.71;24.98
68889;BME280;55930;47.412;8.790;2023-02-22T12:15:46;94234.75;;;24.10;30.22
68889;BME280;55930;47.412;8.790;2023-02-22T12:19:29;94219.78;;;27.28;25.43
68889;BME280;55930;47.412;8.790;2023-02-22T12:26:47;94263.91;;;24.02;30.59
68889;BME280;55930;47.412;8.790;2023-02-22T12:33:44;94236.69;;;23.35;31.86
68889;BME280;55930;47.412;8.790;2023-02-22T12:37:15;94216.22;;;25.73;28.49
68889;BME280;55930;47.412;8.790;2023-02-22T12:40:49;94210.13;;;28.81;25.84
68889;BME280;55930;47.412;8.790;2023-02-22T12:44:21;94221.91;;;28.41;26.06
68889;BME280;55930;47.412;8.790;2023-02-22T12:47:56;94225.56;;;26.93;27.14
68889;BME280;55930;47.412;8.790;2023-02-22T12:58:25;94236.13;;;25.22;29.11
68889;BME280;55930;47.412;8.790;2023-02-22T13:01:52;94235.63;;;28.01;25.66
68889;BME280;55930;47.412;8.790;2023-02-22T13:05:17;94232.09;;;28.62;24.35
68889;BME280;55930;47.412;8.790;2023-02-22T13:12:38;94238.75;;;26.03;27.52
68889;BME280;55930;47.412;8.790;2023-02-22T13:20:00;94240.56;;;23.17;30.25
68889;BME280;55930;47.412;8.790;2023-02-22T13:23:47;94237.91;;;23.99;30.34
68889;BME280;55930;47.412;8.790;2023-02-22T13:27:10;94239.34;;;23.43;30.40
68889;BME280;55930;47.412;8.790;2023-02-22T13:30:38;94236.50;;;20.95;33.85
68889;BME280;55930;47.412;8.790;2023-02-22T13:37:42;94237.00;;;20.43;35.68
68889;BME280;55930;47.412;8.790;2023-02-22T13:41:20;94235.44;;;22.26;34.09
68889;BME280;55930;47.412;8.790;2023-02-22T13:52:27;94226.94;;;25.44;27.93
68889;BME280;55930;47.412;8.790;2023-02-22T13:55:53;94233.25;;;22.39;31.25
68889;BME280;55930;47.412;8.790;2023-02-22T13:59:35;94224.03;;;20.77;33.30
68889;BME280;55930;47.412;8.790;2023-02-22T14:02:58;94234.88;;;21.44;33.73
68889;BME280;55930;47.412;8.790;2023-02-22T14:06:37;94235.44;;;21.72;33.86
68889;BME280;55930;47.412;8.790;2023-02-22T14:09:58;94228.50;;;23.75;30.65
68889;BME280;55930;47.412;8.790;2023-02-22T14:13:23;94234.06;;;23.20;30.38
68889;BME280;55930;47.412;8.790;2023-02-22T14:17:15;94224.59;;;22.48;31.68
68889;BME280;55930;47.412;8.790;2023-02-22T14:20:39;94226.81;;;21.08;34.78
68889;BME280;55930;47.412;8.790;2023-02-22T14:24:08;94236.03;;;17.44;40.02
68889;BME280;55930;47.412;8.790;2023-02-22T14:27:40;94233.84;;;17.62;40.39
68889;BME280;55930;47.412;8.790;2023-02-22T14:31:14;94236.97;;;18.97;38.17
68889;BME280;55930;47.412;8.790;2023-02-22T14:34:41;94230.50;;;19.47;36.52
68889;BME280;55930;47.412;8.790;2023-02-22T14:38:03;94225.97;;;21.13;34.41
68889;BME280;55930;47.412;8.790;2023-02-22T14:41:28;94228.16;;;19.10;37.24
68889;BME280;55930;47.412;8.790;2023-02-22T14:51:40;94234.38;;;19.80;36.31
68889;BME280;55930;47.412;8.790;2023-02-22T14:58:42;94229.56;;;17.02;42.82
68889;BME280;55930;47.412;8.790;2023-02-22T15:02:13;94227.88;;;15.64;45.18
68889;BME280;55930;47.412;8.790;2023-02-22T15:05:36;94226.59;;;15.06;46.48
68889;BME280;55930;47.412;8.790;2023-02-22T15:09:19;94227.72;;;14.69;48.67
68889;BME280;55930;47.412;8.790;2023-02-22T15:16:32;94233.94;;;14.42;51.18
68889;BME280;55930;47.412;8.790;2023-02-22T15:19:53;94230.72;;;14.60;50.64
68889;BME280;55930;47.412;8.790;2023-02-22T15:23:15;94231.84;;;13.85;53.64
68889;BME280;55930;47.412;8.790;2023-02-22T15:26:38;94238.38;;;13.89;52.71
68889;BME280;55930;47.412;8.790;2023-02-22T15:30:07;94241.03;;;14.00;54.22
68889;BME280;55930;47.412;8.790;2023-02-22T15:33:28;94243.75;;;13.78;54.03
68889;BME280;55930;47.412;8.790;2023-02-22T15:37:13;94244.97;;;13.71;55.28
68889;BME280;55930;47.412;8.790;2023-02-22T15:40:39;94243.22;;;13.07;57.71
68889;BME280;55930;47.412;8.790;2023-02-22T15:44:07;94246.16;;;13.26;58.05
68889;BME280;55930;47.412;8.790;2023-02-22T15:47:30;94245.16;;;13.07;57.52
68889;BME280;55930;47.412;8.790;2023-02-22T15:51:00;94241.03;;;13.06;58.59
68889;BME280;55930;47.412;8.790;2023-02-22T15:54:23;94243.91;;;13.02;58.53
68889;BME280;55930;47.412;8.790;2023-02-22T15:57:43;94248.19;;;12.77;60.40
68889;BME280;55930;47.412;8.790;2023-02-22T16:01:05;94248.53;;;12.31;62.35
68889;BME280;55930;47.412;8.790;2023-02-22T16:04:28;94248.28;;;12.29;63.21
68889;BME280;55930;47.412;8.790;2023-02-22T16:07:50;94251.50;;;11.96;65.35
68889;BME280;55930;47.412;8.790;2023-02-22T16:11:19;94253.56;;;11.81;65.88
68889;BME280;55930;47.412;8.790;2023-02-22T16:14:41;94247.91;;;11.73;66.56
68889;BME280;55930;47.412;8.790;2023-02-22T16:18:24;94253.19;;;11.68;66.78
68889;BME280;55930;47.412;8.790;2023-02-22T16:21:57;94258.78;;;11.70;67.12
68889;BME280;55930;47.412;8.790;2023-02-22T16:28:58;94260.44;;;11.36;68.88
68889;BME280;55930;47.412;8.790;2023-02-22T16:32:19;94255.75;;;10.99;71.23
68889;BME280;55930;47.412;8.790;2023-02-22T16:35:40;94257.78;;;10.64;73.21
68889;BME280;55930;47.412;8.790;2023-02-22T16:39:25;94268.19;;;10.47;74.07
68889;BME280;55930;47.412;8.790;2023-02-22T16:42:46;94262.50;;;10.34;74.92
68889;BME280;55930;47.412;8.790;2023-02-22T16:46:06;94271.53;;;10.42;75.96
68889;BME280;55930;47.412;8.790;2023-02-22T16:49:27;94273.19;;;9.90;78.30
68889;BME280;55930;47.412;8.790;2023-02-22T16:52:51;94285.66;;;9.84;79.15
68889;BME280;55930;47.412;8.790;2023-02-22T16:56:15;94287.91;;;9.41;81.30
68889;BME280;55930;47.412;8.790;2023-02-22T16:59:38;94279.84;;;9.36;81.77
68889;BME280;55930;47.412;8.790;2023-02-22T17:03:09;94282.84;;;9.14;83.27
68889;BME280;55930;47.412;8.790;2023-02-22T17:06:33;94284.06;;;8.74;86.26
68889;BME280;55930;47.412;8.790;2023-02-22T17:09:54;94290.19;;;8.80;85.80
68889;BME280;55930;47.412;8.790;2023-02-22T17:13:23;94286.44;;;8.72;86.41
68889;BME280;55930;47.412;8.790;2023-02-22T17:16:44;94295.59;;;8.62;87.61
68889;BME280;55930;47.412;8.790;2023-02-22T17:20:06;94299.50;;;8.52;88.18
68889;BME280;55930;47.412;8.790;2023-02-22T17:23:30;94295.75;;;8.44;88.76
68889;BME280;55930;47.412;8.790;2023-02-22T17:26:51;94300.50;;;8.31;89.10
68889;BME280;55930;47.412;8.790;2023-02-22T17:30:14;94303.16;;;8.31;89.96
68889;BME280;55930;47.412;8.790;2023-02-22T17:33:36;94299.97;;;8.18;90.62
68889;BME280;55930;47.412;8.790;2023-02-22T17:36:56;94307.06;;;8.12;91.91
68889;BME280;55930;47.412;8.790;2023-02-22T17:40:17;94310.25;;;8.16;91.83
68889;BME280;55930;47.412;8.790;2023-02-22T17:43:37;94307.97;;;7.99;93.67
68889;BME280;55930;47.412;8.790;2023-02-22T17:46:58;94311.19;;;8.03;94.17
68889;BME280;55930;47.412;8.790;2023-02-22T17:50:20;94311.38;;;7.91;95.45
68889;BME280;55930;47.412;8.790;2023-02-22T17:53:41;94321.22;;;7.90;95.39
68889;BME280;55930;47.412;8.790;2023-02-22T17:57:01;94316.00;;;7.81;95.84
68889;BME280;55930;47.412;8.790;2023-02-22T18:00:21;94309.25;;;7.80;96.82
68889;BME280;55930;47.412;8.790;2023-02-22T18:03:42;94314.75;;;7.91;96.34
68889;BME280;55930;47.412;8.790;2023-02-22T18:07:05;94313.28;;;7.90;97.46
68889;BME280;55930;47.412;8.790;2023-02-22T18:10:25;94315.38;;;7.86;97.38
68889;BME280;55930;47.412;8.790;2023-02-22T18:13:46;94307.41;;;7.95;97.23
68889;BME280;55930;47.412;8.790;2023-02-22T18:17:06;94308.09;;;7.72;98.80
68889;BME280;55930;47.412;8.790;2023-02-22T18:20:27;94310.75;;;7.63;99.44
68889;BME280;55930;47.412;8.790;2023-02-22T18:23:52;94303.53;;;7.73;99.14
68889;BME280;55930;47.412;8.790;2023-02-22T18:27:16;94311.31;;;7.67;100.00
68889;BME280;55930;47.412;8.790;2023-02-22T18:30:38;94304.28;;;7.73;100.00
68889;BME280;55930;47.412;8.790;2023-02-22T18:34:00;94303.97;;;7.80;100.00
68889;BME280;55930;47.412;8.790;2023-02-22T18:37:20;94307.75;;;7.88;100.00
68889;BME280;55930;47.412;8.790;2023-02-22T18:40:40;94304.19;;;7.91;100.00
68889;BME280;55930;47.412;8.790;2023-02-22T18:44:03;94304.88;;;8.01;100.00
68889;BME280;55930;47.412;8.790;2023-02-22T18:47:25;94305.19;;;8.03;100.00
68889;BME280;55930;47.412;8.790;2023-02-22T18:50:46;94305.38;;;7.90;100.00
68889;BME280;55930;47.412;8.790;2023-02-22T18:54:06;94303.31;;;7.94;100.00
68889;BME280;55930;47.412;8.790;2023-02-22T18:57:29;94298.94;;;8.15;100.00
68889;BME280;55930;47.412;8.790;2023-02-22T19:00:50;94302.59;;;8.18;100.00
68889;BME280;55930;47.412;8.790;2023-02-22T19:04:10;94308.88;;;8.29;100.00
68889;BME280;55930;47.412;8.790;2023-02-22T19:07:34;94302.59;;;8.18;100.00
68889;BME280;55930;47.412;8.790;2023-02-22T19:11:01;94304.91;;;8.25;100.00
68889;BME280;55930;47.412;8.790;2023-02-22T19:14:22;94301.03;;;8.44;99.39
68889;BME280;55930;47.412;8.790;2023-02-22T19:17:42;94299.97;;;8.51;97.52
68889;BME280;55930;47.412;8.790;2023-02-22T19:21:05;94305.78;;;8.55;97.65
68889;BME280;55930;47.412;8.790;2023-02-22T19:24:28;94298.78;;;8.52;97.45
68889;BME280;55930;47.412;8.790;2023-02-22T19:27:49;94302.25;;;8.58;97.58
68889;BME280;55930;47.412;8.790;2023-02-22T19:31:18;94287.63;;;8.48;99.05
68889;BME280;55930;47.412;8.790;2023-02-22T19:34:39;94292.75;;;8.51;97.69
68889;BME280;55930;47.412;8.790;2023-02-22T19:38:03;94296.72;;;8.47;98.23
68889;BME280;55930;47.412;8.790;2023-02-22T19:41:23;94296.41;;;8.54;97.54
68889;BME280;55930;47.412;8.790;2023-02-22T19:44:44;94299.31;;;8.56;96.58
68889;BME280;55930;47.412;8.790;2023-02-22T19:48:04;94305.75;;;8.40;98.73
68889;BME280;55930;47.412;8.790;2023-02-22T19:51:27;94310.69;;;8.47;96.96
68889;BME280;55930;47.412;8.790;2023-02-22T19:54:50;94306.31;;;8.44;96.72
68889;BME280;55930;47.412;8.790;2023-02-22T19:58:13;94305.13;;;8.45;96.59
68889;BME280;55930;47.412;8.790;2023-02-22T20:01:35;94299.66;;;8.49;96.60
68889;BME280;55930;47.412;8.790;2023-02-22T20:04:58;94304.50;;;8.50;95.70
68889;BME280;55930;47.412;8.790;2023-02-22T20:08:19;94300.69;;;8.51;96.74
68889;BME280;55930;47.412;8.790;2023-02-22T20:11:41;94304.94;;;8.49;96.63